KDMW

Details ICAO KDMW
Name CARROLL CO RGNL JACK B POAGE FLD
Region United States
Timezone America/New_York (UTC-5.0)
Plans Departing 17
Arriving 7
Stats Elevation 789 ft / 240 m (AMSL)
Location 39.608278° -77.007657°
Runways 1
Magnetic Variation 11.001° W
Sunrise 2017-12-12 12:20:59 UTC / 2017-12-12 07:20:59 Local
Sunset 2017-12-12 21:45:36 UTC / 2017-12-12 16:45:36 Local
Advertisement - Login to hide

Runways

ID Width Length Bearing (true) Bearing (mag) Surface Threshold Offset Overrun Length
16 100 ft / 30 m 5,104 ft / 1,556 m 148.13° 159.13° Asphalt 0 ft / 0 m 0 ft / 0 m
34 100 ft / 30 m 5,104 ft / 1,556 m 328.13° 339.13° Asphalt 0 ft / 0 m 0 ft / 0 m

Map

Weather


0- 5 10 15 20 25 30 35+ Temperature / ° C

Clouds and Precipitation
Forecast for 2017-12-13 06:00 UTC. Updated 38 minutes ago

Ground ~20,000 ft ~40,000 ft Winds

METAR

KDMW 130125Z AUTO 31011G26KT 10SM SCT045 SCT050 M04/M13 A2966 RMK AO2

TAF

Not found

Frequencies

Recorded 121.25 MHz AWOS 3
Approach 126.75 MHz POTOMAC APP/DEP
Unicom 122.70 MHz CTAF/UNICOM
Warning: Do not use this data for real-world aviation or navigation. No guarantee of current accuracy is given.